createdAt,value
2023-02-11T00:00:19.409Z,29.6
2023-02-11T00:01:36.514Z,29.5
2023-02-11T00:02:53.619Z,30.1
2023-02-11T00:04:10.723Z,30.7
2023-02-11T00:05:27.829Z,30.4
2023-02-11T00:06:44.934Z,29.8
2023-02-11T00:08:02.039Z,28.9
2023-02-11T00:09:19.144Z,29.7
2023-02-11T00:10:36.249Z,29.7
2023-02-11T00:11:52.370Z,30.3
2023-02-11T00:13:09.475Z,29.9
2023-02-11T00:14:26.581Z,29.9
2023-02-11T00:15:43.686Z,30.3
2023-02-11T00:17:00.791Z,29.3
2023-02-11T00:18:17.896Z,31.4
2023-02-11T00:19:35.001Z,28.6
2023-02-11T00:20:52.106Z,30.7
2023-02-11T00:22:09.211Z,29.5
2023-02-11T00:23:26.316Z,29.9
2023-02-11T00:24:43.421Z,29.6
2023-02-11T00:26:00.526Z,29.3
2023-02-11T00:27:17.632Z,29.1
2023-02-11T00:28:33.753Z,30.2
2023-02-11T00:29:50.858Z,29.2
2023-02-11T00:31:06.979Z,29.7
2023-02-11T00:32:24.084Z,30.1
2023-02-11T00:33:40.210Z,29.7
2023-02-11T00:34:56.332Z,30.4
2023-02-11T00:36:12.458Z,29.6
2023-02-11T00:37:28.579Z,29.4
2023-02-11T00:38:45.684Z,30.5
2023-02-11T00:40:02.789Z,30
2023-02-11T00:41:19.894Z,29.8
2023-02-11T00:42:36.999Z,29.7
2023-02-11T00:43:54.104Z,30
2023-02-11T00:45:11.210Z,30.3
2023-02-11T00:46:28.315Z,29.5
2023-02-11T00:47:45.420Z,30.1
2023-02-11T00:49:02.525Z,29.6
2023-02-11T00:50:19.630Z,29.5
2023-02-11T00:51:36.735Z,30.7
2023-02-11T00:52:53.840Z,29.7
2023-02-11T00:54:09.961Z,29.7
2023-02-11T00:55:27.066Z,31
2023-02-11T00:56:44.171Z,31.1
2023-02-11T00:58:01.276Z,30.8
2023-02-11T00:59:18.381Z,30.6
2023-02-11T01:00:35.486Z,30.9
2023-02-11T01:01:52.591Z,30.7
2023-02-11T01:03:08.717Z,31.3
2023-02-11T01:04:24.838Z,31.1
2023-02-11T01:05:40.964Z,30.5
2023-02-11T01:06:57.085Z,30.6
2023-02-11T01:08:14.190Z,31.2
2023-02-11T01:09:31.295Z,31.2
2023-02-11T01:10:48.401Z,31.6
2023-02-11T01:12:05.506Z,31.1
2023-02-11T01:13:22.611Z,30.9
2023-02-11T01:14:39.716Z,31.7
2023-02-11T01:15:56.821Z,30.9
2023-02-11T01:17:13.926Z,30.8
2023-02-11T01:18:31.031Z,29.9
2023-02-11T01:19:48.136Z,30.2
2023-02-11T01:21:05.241Z,30
2023-02-11T01:22:22.346Z,29
2023-02-11T01:23:38.467Z,28.7
2023-02-11T01:24:55.572Z,29.1
2023-02-11T01:26:12.677Z,30.3
2023-02-11T01:27:29.782Z,30.5
2023-02-11T01:28:46.887Z,31.1
2023-02-11T01:30:03.992Z,30.8
2023-02-11T01:31:21.097Z,29.8
2023-02-11T01:32:37.223Z,29.4
2023-02-11T01:33:53.345Z,30.2
2023-02-11T01:35:09.471Z,29.9
2023-02-11T01:36:25.592Z,29.7
2023-02-11T01:37:42.697Z,29.3
2023-02-11T01:38:59.802Z,29
2023-02-11T01:40:16.907Z,30.2
2023-02-11T01:41:34.013Z,29
2023-02-11T01:42:51.118Z,28.9
2023-02-11T01:44:08.223Z,28.5
2023-02-11T01:45:25.328Z,28.3
2023-02-11T01:46:42.433Z,28.6
2023-02-11T01:47:59.538Z,28.8
2023-02-11T01:49:16.643Z,28.9
2023-02-11T01:50:33.748Z,28.8
2023-02-11T01:51:50.853Z,28.4
2023-02-11T01:53:06.973Z,28.8
2023-02-11T01:54:24.078Z,29
2023-02-11T01:55:41.183Z,28.1
2023-02-11T01:56:58.288Z,28.6
2023-02-11T01:58:15.393Z,28.3
2023-02-11T01:59:32.498Z,29.4
2023-02-11T02:00:49.603Z,28.8
2023-02-11T02:02:05.729Z,29.8
2023-02-11T02:03:21.850Z,29.8
2023-02-11T02:04:37.976Z,28.8
2023-02-11T02:05:54.097Z,28.6
2023-02-11T02:07:11.202Z,28.3
2023-02-11T02:08:28.307Z,28.4
2023-02-11T02:09:45.412Z,28.8
2023-02-11T02:11:02.516Z,28.2
2023-02-11T02:12:19.621Z,28.2
2023-02-11T02:13:36.726Z,28.7
2023-02-11T02:14:53.831Z,27.9
2023-02-11T02:16:10.936Z,28.6
2023-02-11T02:17:28.041Z,27
2023-02-11T02:18:45.146Z,29.3
2023-02-11T02:20:02.251Z,27.7
2023-02-11T02:21:19.355Z,28.1
2023-02-11T02:22:35.476Z,29.3
2023-02-11T02:23:52.581Z,28.1
2023-02-11T02:25:09.686Z,28.3
2023-02-11T02:26:26.791Z,28
2023-02-11T02:27:43.896Z,29.2
2023-02-11T02:29:01.001Z,28.3
2023-02-11T02:31:35.210Z,29.6
2023-02-11T02:32:51.337Z,28.9
2023-02-11T02:34:07.458Z,29.3
2023-02-11T02:35:24.562Z,29
2023-02-11T02:36:40.688Z,28.7
2023-02-11T02:37:56.809Z,28.3
2023-02-11T02:39:13.914Z,28.6
2023-02-11T02:40:31.019Z,29
2023-02-11T02:41:48.124Z,29
2023-02-11T02:43:05.229Z,28.8
2023-02-11T02:44:22.334Z,29.1
2023-02-11T02:45:39.439Z,28.3
2023-02-11T02:46:56.544Z,28.3
2023-02-11T02:48:13.648Z,28.2
2023-02-11T02:49:30.753Z,28.1
2023-02-11T02:50:47.858Z,28.2
2023-02-11T02:52:04.963Z,29.4
2023-02-11T02:53:22.068Z,28.4
2023-02-11T02:54:38.189Z,28.8
2023-02-11T02:55:55.294Z,28.6
2023-02-11T02:57:12.399Z,28.8
2023-02-11T02:58:29.504Z,28.8
2023-02-11T02:59:46.609Z,29.2
2023-02-11T03:01:03.713Z,28.9
2023-02-11T03:02:20.818Z,29.5
2023-02-11T03:03:37.923Z,29.1
2023-02-11T03:04:55.028Z,30.2
2023-02-11T03:06:12.133Z,28.9
2023-02-11T03:07:29.238Z,28.8
2023-02-11T03:08:46.344Z,28.7
2023-02-11T03:10:03.449Z,29.1
2023-02-11T03:11:19.570Z,28.4
2023-02-11T03:12:36.675Z,28.9
2023-02-11T03:13:53.780Z,29.5
2023-02-11T03:15:10.885Z,30.1
2023-02-11T03:16:27.990Z,30
2023-02-11T03:17:45.095Z,30.3
2023-02-11T03:19:02.200Z,30.4
2023-02-11T03:20:19.305Z,30.9
2023-02-11T03:21:36.410Z,30.5
2023-02-11T03:22:53.515Z,31.2
2023-02-11T03:24:10.620Z,30.7
2023-02-11T03:25:27.726Z,31.2
2023-02-11T03:26:44.831Z,30.1
2023-02-11T03:28:00.952Z,29.8
2023-02-11T03:29:18.057Z,28.9
2023-02-11T03:30:35.162Z,29.4
2023-02-11T03:31:51.288Z,29.4
2023-02-11T03:33:07.409Z,28.7
2023-02-11T03:34:23.535Z,30.3
2023-02-11T03:35:39.656Z,29.6
2023-02-11T03:36:56.761Z,29.8
2023-02-11T03:38:13.866Z,28.2
2023-02-11T03:39:30.971Z,29.7
2023-02-11T03:40:48.076Z,30.1
2023-02-11T03:42:05.180Z,28.8
2023-02-11T03:43:22.286Z,30.9
2023-02-11T03:44:39.391Z,29.8
2023-02-11T03:45:56.495Z,30.5
2023-02-11T03:47:13.600Z,31.3
2023-02-11T03:48:30.705Z,31.3
2023-02-11T03:49:47.810Z,30.9
2023-02-11T03:51:04.915Z,30.9
2023-02-11T03:52:21.036Z,30.1
2023-02-11T03:53:38.141Z,30.7
2023-02-11T03:54:55.246Z,30.1
2023-02-11T03:56:12.351Z,30.5
2023-02-11T03:57:29.456Z,31
2023-02-11T03:58:46.561Z,30.7
2023-02-11T04:00:03.665Z,31
2023-02-11T04:01:19.792Z,30.9
2023-02-11T04:02:35.912Z,30.7
2023-02-11T04:03:52.039Z,31.4
2023-02-11T04:05:08.160Z,31.1
2023-02-11T04:06:25.264Z,31.5
2023-02-11T04:07:42.369Z,32
2023-02-11T04:08:59.474Z,32.5
2023-02-11T04:10:16.579Z,32.7
2023-02-11T04:11:33.684Z,32.6
2023-02-11T04:12:50.789Z,32.6
2023-02-11T04:14:07.894Z,32.4
2023-02-11T04:15:24.999Z,32.8
2023-02-11T04:16:42.103Z,34.1
2023-02-11T04:17:59.208Z,34.3
2023-02-11T04:19:16.313Z,34
2023-02-11T04:20:33.418Z,32.9
2023-02-11T04:21:49.539Z,32.9
2023-02-11T04:23:06.645Z,33.3
2023-02-11T04:24:23.750Z,32.8
2023-02-11T04:26:57.959Z,33.7
2023-02-11T04:28:15.064Z,33
2023-02-11T04:29:32.169Z,33.9
2023-02-11T04:30:49.274Z,32.7
2023-02-11T04:32:06.379Z,32.6
2023-02-11T04:33:23.484Z,33.2
2023-02-11T04:34:39.610Z,32.9
2023-02-11T04:35:55.731Z,33.2
2023-02-11T04:37:12.836Z,33.2
2023-02-11T04:38:28.962Z,33.2
2023-02-11T04:39:45.083Z,33.8
2023-02-11T04:41:02.188Z,32.7
2023-02-11T04:42:19.293Z,32.9
2023-02-11T04:43:36.398Z,32.8
2023-02-11T04:44:53.503Z,32.7
2023-02-11T04:46:10.608Z,31.2
2023-02-11T04:47:27.713Z,32.2
2023-02-11T04:48:43.834Z,32.5
2023-02-11T04:50:00.939Z,32.1
2023-02-11T04:51:18.044Z,32
2023-02-11T04:52:35.149Z,32.7
2023-02-11T04:53:52.254Z,31.5
2023-02-11T04:55:09.359Z,33.1
2023-02-11T04:56:26.463Z,31.6
2023-02-11T04:57:43.568Z,33.1
2023-02-11T04:59:00.674Z,33
2023-02-11T05:00:17.779Z,33.3
2023-02-11T05:01:34.884Z,33.1
2023-02-11T05:02:51.989Z,32.2
2023-02-11T05:04:09.094Z,33.5
2023-02-11T05:05:25.220Z,33.5
2023-02-11T05:06:41.341Z,33.2
2023-02-11T05:07:58.446Z,33.2
2023-02-11T05:09:15.551Z,34.3
2023-02-11T05:10:31.677Z,33.7
2023-02-11T05:11:47.798Z,32.9
2023-02-11T05:13:04.904Z,33.3
2023-02-11T05:14:22.009Z,33.9
2023-02-11T05:15:39.114Z,33.8
2023-02-11T05:16:56.219Z,34.1
2023-02-11T05:18:13.324Z,33.9
2023-02-11T05:19:30.429Z,33.5
2023-02-11T05:20:47.534Z,34
2023-02-11T05:22:04.639Z,32.3
2023-02-11T05:23:21.744Z,33.4
2023-02-11T05:24:38.849Z,34.5
2023-02-11T05:25:55.954Z,34.6
2023-02-11T05:27:13.060Z,34.8
2023-02-11T05:28:29.181Z,34.3
2023-02-11T05:29:46.286Z,34
2023-02-11T05:31:03.391Z,34.5
2023-02-11T05:32:20.496Z,35.4
2023-02-11T05:33:37.601Z,35.9
2023-02-11T05:34:54.706Z,36.1
2023-02-11T05:36:11.811Z,36
2023-02-11T05:37:28.916Z,34.8
2023-02-11T05:38:46.021Z,35
2023-02-11T05:40:03.126Z,34.6
2023-02-11T05:41:20.231Z,36.6
2023-02-11T05:42:36.357Z,34.6
2023-02-11T05:43:52.478Z,34.6
2023-02-11T05:45:08.604Z,35.3
2023-02-11T05:46:24.725Z,34.9
2023-02-11T05:47:41.830Z,35.5
2023-02-11T05:48:58.935Z,35.9
2023-02-11T05:50:16.040Z,35.1
2023-02-11T05:51:33.145Z,35
2023-02-11T05:52:50.250Z,34.4
2023-02-11T05:54:07.355Z,35
2023-02-11T05:55:24.460Z,34.7
2023-02-11T05:56:41.565Z,35.9
2023-02-11T05:57:58.670Z,35.1
2023-02-11T05:59:15.775Z,35.7
2023-02-11T06:00:32.880Z,34.5
2023-02-11T06:01:49.985Z,34.5
2023-02-11T06:03:06.106Z,35.5
2023-02-11T06:04:23.211Z,35.1
2023-02-11T06:05:40.316Z,35.3
2023-02-11T06:06:57.421Z,35.3
2023-02-11T06:08:14.526Z,35.9
2023-02-11T06:09:31.631Z,35.7
2023-02-11T06:10:48.736Z,35.1
2023-02-11T06:12:04.862Z,35.3
2023-02-11T06:13:20.983Z,35.4
2023-02-11T06:14:37.110Z,35.4
2023-02-11T06:15:53.231Z,35
2023-02-11T06:17:10.336Z,35.6
2023-02-11T06:18:27.441Z,35.2
2023-02-11T06:19:44.546Z,36.3
2023-02-11T06:21:01.651Z,34.8
2023-02-11T06:22:18.756Z,35.5
2023-02-11T06:23:35.861Z,35.1
2023-02-11T06:24:52.966Z,35.2
2023-02-11T06:26:10.070Z,35
2023-02-11T06:27:27.175Z,34.1
2023-02-11T06:28:44.281Z,34.7
2023-02-11T06:30:01.386Z,34.2
2023-02-11T06:31:18.490Z,35.8
2023-02-11T06:32:34.611Z,35.1
2023-02-11T06:33:51.716Z,34.4
2023-02-11T06:35:08.821Z,35.5
2023-02-11T06:36:25.926Z,35.9
2023-02-11T06:37:43.031Z,36.3
2023-02-11T06:39:00.136Z,36.7
2023-02-11T06:40:17.241Z,36.6
2023-02-11T06:41:33.367Z,36.2
2023-02-11T06:42:49.488Z,37.2
2023-02-11T06:44:05.615Z,37.2
2023-02-11T06:45:21.736Z,37.2
2023-02-11T06:46:38.840Z,37.2
2023-02-11T06:47:55.945Z,35.5
2023-02-11T06:49:13.050Z,36
2023-02-11T06:50:30.155Z,37.3
2023-02-11T06:51:47.260Z,37.6
2023-02-11T06:53:04.365Z,37.6
2023-02-11T06:54:21.470Z,38
2023-02-11T06:55:38.575Z,37.7
2023-02-11T06:56:55.680Z,38.4
2023-02-11T06:58:12.785Z,38
2023-02-11T06:59:29.890Z,37.7
2023-02-11T07:00:46.994Z,37.3
2023-02-11T07:02:03.115Z,36.6
2023-02-11T07:03:20.220Z,36.4
2023-02-11T07:04:37.325Z,37.4
2023-02-11T07:05:54.430Z,36.9
2023-02-11T07:07:11.535Z,36.6
2023-02-11T07:08:28.640Z,37.2
2023-02-11T07:09:45.745Z,38.2
2023-02-11T07:11:01.871Z,38
2023-02-11T07:12:17.992Z,36.2
2023-02-11T07:13:34.119Z,38.4
2023-02-11T07:14:50.240Z,36.8
2023-02-11T07:16:07.345Z,37.8
2023-02-11T07:17:24.450Z,39.5
2023-02-11T07:18:41.554Z,39.4
2023-02-11T07:19:58.659Z,39.2
2023-02-11T07:21:15.764Z,39.1
2023-02-11T07:22:32.870Z,38.3
2023-02-11T07:23:49.975Z,39.3
2023-02-11T07:25:07.080Z,40
2023-02-11T07:26:24.185Z,40.5
2023-02-11T07:27:41.290Z,39.5
2023-02-11T07:28:58.394Z,41.5
2023-02-11T07:30:15.499Z,42.5
2023-02-11T07:31:31.620Z,43
2023-02-11T07:32:48.725Z,41.7
2023-02-11T07:34:05.831Z,40.2
2023-02-11T07:35:22.935Z,40.4
2023-02-11T07:36:40.040Z,41.3
2023-02-11T07:37:57.145Z,42.3
2023-02-11T07:39:14.250Z,42.8
2023-02-11T07:40:30.376Z,41.5
2023-02-11T07:41:46.497Z,41.3
2023-02-11T07:43:03.602Z,42.1
2023-02-11T07:44:19.728Z,42.7
2023-02-11T07:45:35.849Z,41.6
2023-02-11T07:46:52.954Z,41.6
2023-02-11T07:48:10.059Z,40.5
2023-02-11T07:49:27.164Z,40.3
2023-02-11T07:50:44.269Z,40.8
2023-02-11T07:52:01.374Z,41
2023-02-11T07:53:18.479Z,41.3
2023-02-11T07:54:35.584Z,40.1
2023-02-11T07:55:52.689Z,39.9
2023-02-11T07:57:09.794Z,39.8
2023-02-11T07:58:26.898Z,40.3
2023-02-11T07:59:44.004Z,39.7
2023-02-11T08:01:01.109Z,39.3
2023-02-11T08:02:17.230Z,38.8
2023-02-11T08:03:34.335Z,39
2023-02-11T08:04:51.439Z,39.7
2023-02-11T08:06:08.544Z,38.5
2023-02-11T08:07:25.649Z,37.5
2023-02-11T08:08:42.754Z,37.4
2023-02-11T08:09:59.859Z,37.1
2023-02-11T08:11:15.985Z,36.4
2023-02-11T08:12:32.106Z,36.4
2023-02-11T08:13:48.232Z,35.4
2023-02-11T08:15:04.353Z,35.6
2023-02-11T08:17:38.563Z,34
2023-02-11T08:18:55.668Z,33.5
2023-02-11T08:20:12.773Z,34
2023-02-11T08:21:29.878Z,33.9
2023-02-11T08:22:46.983Z,33.1
2023-02-11T08:24:04.088Z,33.1
2023-02-11T08:25:21.193Z,32.3
2023-02-11T08:26:38.298Z,31.8
2023-02-11T08:27:55.403Z,31.6
2023-02-11T08:29:12.508Z,32.3
2023-02-11T08:30:29.612Z,31.8
2023-02-11T08:31:45.733Z,31.9
2023-02-11T08:33:02.838Z,30.9
2023-02-11T08:34:19.943Z,30.3
2023-02-11T08:35:37.048Z,30.6
2023-02-11T08:36:54.153Z,31
2023-02-11T08:38:11.258Z,31.7
2023-02-11T08:39:28.363Z,30.4
2023-02-11T08:40:45.468Z,28.7
2023-02-11T08:42:01.594Z,28.6
2023-02-11T08:43:17.715Z,27
2023-02-11T08:44:33.841Z,28.5
2023-02-11T08:45:49.962Z,26.9
2023-02-11T08:47:07.067Z,25.8
2023-02-11T08:48:24.172Z,26.1
2023-02-11T08:49:41.277Z,26.2
2023-02-11T08:50:58.381Z,27
2023-02-11T08:52:15.486Z,25.7
2023-02-11T08:53:32.592Z,26.3
2023-02-11T08:54:49.696Z,26.4
2023-02-11T08:56:06.801Z,27.3
2023-02-11T08:57:23.906Z,27.3
2023-02-11T08:58:41.011Z,26.2
2023-02-11T08:59:58.116Z,27.2
2023-02-11T09:01:15.221Z,26
2023-02-11T09:03:48.447Z,25.6
2023-02-11T09:05:05.552Z,28.9
2023-02-11T09:06:21.673Z,26.5
2023-02-11T09:07:38.778Z,25.8
2023-02-11T09:08:55.883Z,25.6
2023-02-11T09:10:12.988Z,26.7
2023-02-11T09:11:30.093Z,26.7
2023-02-11T09:12:46.219Z,27.4
2023-02-11T09:14:02.340Z,25.5
2023-02-11T09:15:19.445Z,28.1
2023-02-11T09:16:35.571Z,26.7
2023-02-11T09:17:51.692Z,25.5
2023-02-11T09:19:08.797Z,27.4
2023-02-11T09:20:25.902Z,28.1
2023-02-11T09:21:43.007Z,27.9
2023-02-11T09:23:00.112Z,29.2
2023-02-11T09:24:17.218Z,26.5
2023-02-11T09:25:34.323Z,26.4
2023-02-11T09:26:51.428Z,28.2
2023-02-11T09:28:08.533Z,28
2023-02-11T09:29:25.637Z,27.8
2023-02-11T09:30:42.742Z,28.8
2023-02-11T09:31:59.848Z,29
2023-02-11T09:33:16.952Z,26.8
2023-02-11T09:34:33.073Z,27.1
2023-02-11T09:35:50.178Z,27.7
2023-02-11T09:37:07.283Z,27.2
2023-02-11T09:38:24.388Z,26
2023-02-11T09:39:41.493Z,28.3
2023-02-11T09:40:58.598Z,28.6
2023-02-11T09:42:15.702Z,25.8
2023-02-11T09:43:31.829Z,26.2
2023-02-11T09:44:47.950Z,27.8
2023-02-11T09:46:04.076Z,28
2023-02-11T09:47:20.197Z,27.2
2023-02-11T09:48:37.302Z,26.6
2023-02-11T09:49:54.407Z,26.5
2023-02-11T09:51:11.512Z,27.8
2023-02-11T09:52:28.616Z,25.4
2023-02-11T09:53:45.721Z,26.6
2023-02-11T09:55:02.826Z,25.9
2023-02-11T09:56:19.931Z,27.7
2023-02-11T09:57:37.036Z,28.8
2023-02-11T09:58:54.141Z,28.4
2023-02-11T10:00:11.246Z,27.9
2023-02-11T10:01:28.351Z,27.1
2023-02-11T10:02:45.456Z,27.3
2023-02-11T10:04:01.577Z,28.2
2023-02-11T10:05:18.682Z,27.6
2023-02-11T10:06:35.787Z,28.5
2023-02-11T10:07:52.891Z,27
2023-02-11T10:09:09.996Z,30.4
2023-02-11T10:10:27.102Z,26.7
2023-02-11T10:11:44.206Z,28.6
2023-02-11T10:13:00.333Z,30.1
2023-02-11T10:14:16.454Z,28.2
2023-02-11T10:15:33.558Z,30.2
2023-02-11T10:16:50.663Z,28.9
2023-02-11T10:18:06.790Z,28.7
2023-02-11T10:19:22.911Z,30.7
2023-02-11T10:20:40.015Z,30.2
2023-02-11T10:21:57.120Z,29.1
2023-02-11T10:23:14.225Z,30
2023-02-11T10:24:31.330Z,29.6
2023-02-11T10:25:48.435Z,30
2023-02-11T10:27:05.540Z,28.9
2023-02-11T10:28:22.645Z,30
2023-02-11T10:29:39.750Z,29.7
2023-02-11T10:30:56.855Z,29.7
2023-02-11T10:32:13.960Z,28.7
2023-02-11T10:33:31.065Z,31.7
2023-02-11T10:34:48.169Z,29.6
2023-02-11T10:36:04.290Z,29.9
2023-02-11T10:37:21.396Z,29.2
2023-02-11T10:38:38.501Z,28.6
2023-02-11T10:39:55.605Z,29.1
2023-02-11T10:41:12.710Z,29.4
2023-02-11T10:42:29.815Z,29.3
2023-02-11T10:43:46.920Z,30.2
2023-02-11T10:45:04.025Z,29.2
2023-02-11T10:46:21.130Z,30.8
2023-02-11T10:47:38.235Z,30.6
2023-02-11T10:48:55.340Z,29.9
2023-02-11T10:50:12.444Z,30.8
2023-02-11T10:51:29.549Z,31.1
2023-02-11T10:52:45.670Z,30.1
2023-02-11T10:54:02.775Z,31
2023-02-11T10:55:19.880Z,30.7
2023-02-11T10:56:36.985Z,32
2023-02-11T10:57:54.090Z,30.5
2023-02-11T10:59:11.195Z,30.7
2023-02-11T11:00:28.300Z,30.1
2023-02-11T11:01:45.404Z,30.7
2023-02-11T11:03:02.509Z,31.2
2023-02-11T11:04:19.614Z,31
2023-02-11T11:05:35.740Z,30.4
2023-02-11T11:06:51.861Z,30.4
2023-02-11T11:08:08.966Z,29.3
2023-02-11T11:09:26.071Z,28.9
2023-02-11T11:10:43.176Z,29.2
2023-02-11T11:11:59.302Z,30.3
2023-02-11T11:13:15.423Z,30.3
2023-02-11T11:14:32.528Z,32
2023-02-11T11:15:49.633Z,30.7
2023-02-11T11:17:06.738Z,29.9
2023-02-11T11:18:23.842Z,30.5
2023-02-11T11:19:40.947Z,31.2
2023-02-11T11:20:58.052Z,29.8
2023-02-11T11:22:15.157Z,30.2
2023-02-11T11:23:32.262Z,31.2
2023-02-11T11:24:49.367Z,29.6
2023-02-11T11:26:06.472Z,30
2023-02-11T11:27:23.577Z,30.2
2023-02-11T11:28:40.681Z,31.4
2023-02-11T11:29:56.802Z,32.3
2023-02-11T11:31:13.907Z,31.4
2023-02-11T11:32:31.012Z,31.5
2023-02-11T11:33:48.115Z,32
2023-02-11T11:35:05.220Z,30.8
2023-02-11T11:36:22.325Z,30.8
2023-02-11T11:37:39.430Z,31.7
2023-02-11T11:38:56.534Z,31.4
2023-02-11T11:40:13.639Z,31.5
2023-02-11T11:41:30.744Z,33.8
2023-02-11T11:42:47.850Z,30.9
2023-02-11T11:44:04.955Z,33.2
2023-02-11T11:45:21.081Z,32.1
2023-02-11T11:46:37.202Z,31.8
2023-02-11T11:47:54.307Z,32.8
2023-02-11T11:49:11.412Z,30.8
2023-02-11T11:50:28.517Z,32.7
2023-02-11T11:51:44.643Z,32.1
2023-02-11T11:53:00.764Z,31.9
2023-02-11T11:54:17.868Z,33.1
2023-02-11T11:55:34.973Z,32.2
2023-02-11T11:56:52.078Z,32.2
2023-02-11T11:58:09.183Z,32.7
2023-02-11T11:59:26.288Z,32.5
2023-02-11T12:00:43.393Z,32.4
2023-02-11T12:02:00.498Z,30.7
2023-02-11T12:03:17.603Z,31.9
2023-02-11T12:04:34.707Z,32.6
2023-02-11T12:05:51.812Z,31.9
2023-02-11T12:07:08.917Z,30.5
2023-02-11T12:08:26.022Z,31.1
2023-02-11T12:09:42.143Z,31.3
2023-02-11T12:10:59.248Z,33.9
2023-02-11T12:12:16.352Z,32.5
2023-02-11T12:13:33.459Z,30.7
2023-02-11T12:14:50.563Z,30.3
2023-02-11T12:16:07.668Z,31.4
2023-02-11T12:17:24.773Z,30.5
2023-02-11T12:18:41.878Z,34.5
2023-02-11T12:19:58.983Z,32
2023-02-11T12:21:16.088Z,31.6
2023-02-11T12:22:32.214Z,32.2
2023-02-11T12:23:48.335Z,34
2023-02-11T12:25:05.440Z,32.1
2023-02-11T12:26:22.545Z,32.6
2023-02-11T12:27:39.650Z,32
2023-02-11T12:28:56.755Z,31.3
2023-02-11T12:30:12.881Z,33.7
2023-02-11T12:31:29.001Z,32
2023-02-11T12:32:46.106Z,33.4
2023-02-11T12:34:03.211Z,33.1
2023-02-11T12:35:20.316Z,34.1
2023-02-11T12:36:37.421Z,33
2023-02-11T12:37:54.525Z,33.4
2023-02-11T12:39:11.630Z,33.7
2023-02-11T12:40:28.735Z,33.5
2023-02-11T12:41:45.840Z,34.3
2023-02-11T12:43:02.945Z,35.2
2023-02-11T12:44:20.050Z,35
2023-02-11T12:45:37.154Z,39.9
2023-02-11T12:46:54.259Z,35.8
2023-02-11T12:48:10.380Z,34.3
2023-02-11T12:49:27.485Z,35.2
2023-02-11T12:50:44.590Z,34.9
2023-02-11T12:52:01.695Z,36
2023-02-11T12:53:18.799Z,35.4
2023-02-11T12:54:35.904Z,35.3
2023-02-11T12:55:53.009Z,35.7
2023-02-11T12:57:09.135Z,34.7
2023-02-11T12:58:25.256Z,37.1
2023-02-11T12:59:41.382Z,36.5
2023-02-11T13:00:57.503Z,34.6
2023-02-11T13:02:14.608Z,34.2
2023-02-11T13:03:31.712Z,35
2023-02-11T13:04:48.817Z,34
2023-02-11T13:06:05.922Z,36.4
2023-02-11T13:07:23.027Z,37.6
2023-02-11T13:08:40.132Z,37.6
2023-02-11T13:09:57.237Z,36.8
2023-02-11T13:11:14.341Z,38.2
2023-02-11T13:12:31.446Z,37.5
2023-02-11T13:13:48.551Z,35.6
2023-02-11T13:15:05.656Z,34.9
2023-02-11T13:16:22.761Z,35.8
2023-02-11T13:17:38.882Z,35.1
2023-02-11T13:18:55.986Z,34.1
2023-02-11T13:20:13.091Z,35.5
2023-02-11T13:21:30.196Z,36
2023-02-11T13:22:47.300Z,35.4
2023-02-11T13:24:03.421Z,37.5
2023-02-11T13:25:20.526Z,36.6
2023-02-11T13:26:37.631Z,35.4
2023-02-11T13:27:54.735Z,35.8
2023-02-11T13:29:11.840Z,38.6
2023-02-11T13:30:28.945Z,37.1
2023-02-11T13:31:46.050Z,37.3
2023-02-11T13:33:03.155Z,36.9
2023-02-11T13:34:20.259Z,36
2023-02-11T13:35:37.364Z,37.8
2023-02-11T13:36:54.469Z,37.6
2023-02-11T13:38:11.573Z,39.5
2023-02-11T13:39:28.679Z,37.6
2023-02-11T13:40:44.799Z,37.3
2023-02-11T13:42:01.904Z,40.1
2023-02-11T13:43:19.009Z,40.8
2023-02-11T13:44:36.114Z,37.9
2023-02-11T13:45:53.218Z,38.2
2023-02-11T13:47:10.323Z,37.1
2023-02-11T13:48:27.428Z,38.4
2023-02-11T13:49:44.532Z,37.9
2023-02-11T13:51:01.638Z,38
2023-02-11T13:52:18.742Z,36.7
2023-02-11T13:53:35.847Z,37
2023-02-11T13:54:52.952Z,38.8
2023-02-11T13:56:10.057Z,40.6
2023-02-11T13:57:26.177Z,39.6
2023-02-11T13:58:43.282Z,41.1
2023-02-11T14:00:00.387Z,39.5
2023-02-11T14:01:17.491Z,42.2
2023-02-11T14:02:34.596Z,39.6
2023-02-11T14:03:51.701Z,39.4
2023-02-11T14:05:08.806Z,38
2023-02-11T14:06:25.912Z,38.5
2023-02-11T14:07:43.016Z,40.8
2023-02-11T14:09:00.121Z,42.7
2023-02-11T14:10:17.226Z,40.9
2023-02-11T14:11:34.330Z,41.9
2023-02-11T14:12:51.436Z,41.4
2023-02-11T14:14:07.556Z,42.3
2023-02-11T14:15:24.661Z,39.9
2023-02-11T14:16:41.766Z,39.8
2023-02-11T14:17:58.870Z,42.6
2023-02-11T14:19:15.975Z,42.3
2023-02-11T14:20:33.080Z,43.4
2023-02-11T14:21:50.185Z,41.3
2023-02-11T14:23:07.291Z,41.3
2023-02-11T14:24:24.396Z,42.3
2023-02-11T14:25:41.500Z,40.8
2023-02-11T14:26:58.605Z,39.9
2023-02-11T14:28:15.710Z,40.7
2023-02-11T14:29:32.815Z,40.8
2023-02-11T14:30:48.936Z,40.2
2023-02-11T14:32:06.040Z,42
2023-02-11T14:33:23.145Z,41.6
2023-02-11T14:34:40.250Z,41.1
2023-02-11T14:35:57.355Z,39.2
2023-02-11T14:37:14.460Z,38.8
2023-02-11T14:38:31.564Z,39.7
2023-02-11T14:39:48.669Z,40.7
2023-02-11T14:41:04.795Z,40
2023-02-11T14:42:21.900Z,38.9
2023-02-11T14:43:38.026Z,39.1
2023-02-11T14:44:54.147Z,40.3
2023-02-11T14:46:11.252Z,39.3
2023-02-11T14:47:28.357Z,38.8
2023-02-11T14:48:45.461Z,40.1
2023-02-11T14:50:02.566Z,39.2
2023-02-11T14:51:19.671Z,38.8
2023-02-11T14:52:36.776Z,39.3
2023-02-11T14:53:53.881Z,40.8
2023-02-11T14:55:10.985Z,38.7
2023-02-11T14:56:28.090Z,40
2023-02-11T14:57:45.195Z,39
2023-02-11T14:59:02.300Z,38.6
2023-02-11T15:00:19.405Z,40.2
2023-02-11T15:01:35.526Z,38.7
2023-02-11T15:02:52.630Z,37.5
2023-02-11T15:04:09.735Z,39.1
2023-02-11T15:05:26.840Z,39
2023-02-11T15:06:43.944Z,39.4
2023-02-11T15:08:01.049Z,39.3
2023-02-11T15:09:18.154Z,40
2023-02-11T15:10:35.259Z,39.6
2023-02-11T15:11:52.364Z,40.8
2023-02-11T15:13:09.468Z,39.9
2023-02-11T15:14:26.573Z,41.3
2023-02-11T15:15:43.678Z,41.4
2023-02-11T15:17:00.783Z,41.5
2023-02-11T15:18:16.904Z,40.7
2023-02-11T15:19:33.030Z,43
2023-02-11T15:20:49.151Z,41.6
2023-02-11T15:22:05.277Z,41.5
2023-02-11T15:23:21.397Z,40.7
2023-02-11T15:24:38.502Z,40.6
2023-02-11T15:25:55.607Z,42.1
2023-02-11T15:27:12.712Z,40.1
2023-02-11T15:28:29.817Z,40.9
2023-02-11T15:29:46.922Z,41.2
2023-02-11T15:31:04.026Z,41.9
2023-02-11T15:32:21.131Z,42.1
2023-02-11T15:33:38.236Z,42.9
2023-02-11T15:34:55.340Z,42.5
2023-02-11T15:36:12.445Z,40.7
2023-02-11T15:37:29.550Z,40.1
2023-02-11T15:38:46.655Z,40.2
2023-02-11T15:40:03.760Z,39.4
2023-02-11T15:41:19.880Z,39
2023-02-11T15:42:36.985Z,39
2023-02-11T15:43:54.090Z,38.3
2023-02-11T15:45:11.195Z,38.6
2023-02-11T15:46:28.299Z,40
2023-02-11T15:47:45.404Z,39.2
2023-02-11T15:49:02.509Z,38.7
2023-02-11T15:50:19.614Z,38.8
2023-02-11T15:51:36.719Z,39
2023-02-11T15:52:53.823Z,38.7
2023-02-11T15:54:10.928Z,41
2023-02-11T15:55:28.033Z,41.3
2023-02-11T15:56:45.137Z,41.2
2023-02-11T15:58:01.258Z,41.1
2023-02-11T15:59:18.363Z,40.7
2023-02-11T16:00:35.468Z,41.7
2023-02-11T16:01:52.573Z,44.1
2023-02-11T16:03:09.678Z,42.4
2023-02-11T16:04:26.783Z,41.6
2023-02-11T16:05:43.888Z,42.2
2023-02-11T16:07:00.992Z,40.7
2023-02-11T16:08:18.097Z,43.2
2023-02-11T16:09:35.202Z,43.5
2023-02-11T16:10:52.307Z,42.4
2023-02-11T16:12:09.412Z,43.6
2023-02-11T16:13:26.517Z,43.2
2023-02-11T16:14:42.637Z,41.7
2023-02-11T16:15:59.742Z,41
2023-02-11T16:17:16.847Z,39.1
2023-02-11T16:18:33.953Z,40.1
2023-02-11T16:19:51.057Z,40.5
2023-02-11T16:21:08.162Z,39.9
2023-02-11T16:22:25.265Z,41.5
2023-02-11T16:23:42.370Z,41.2
2023-02-11T16:24:59.475Z,41
2023-02-11T16:26:16.580Z,39.5
2023-02-11T16:27:33.685Z,39.9
2023-02-11T16:28:50.789Z,41.3
2023-02-11T16:31:24.020Z,38.5
2023-02-11T16:32:40.146Z,38.9
2023-02-11T16:33:56.267Z,39.9
2023-02-11T16:35:13.372Z,40.8
2023-02-11T16:36:29.498Z,39.4
2023-02-11T16:37:45.619Z,38.3
2023-02-11T16:39:02.724Z,37.6
2023-02-11T16:40:19.829Z,37.8
2023-02-11T16:41:36.934Z,37.5
2023-02-11T16:42:54.039Z,36.5
2023-02-11T16:44:11.141Z,35.5
2023-02-11T16:45:28.246Z,35.6
2023-02-11T16:46:45.351Z,34.9
2023-02-11T16:48:02.456Z,34.5
2023-02-11T16:49:19.560Z,34.4
2023-02-11T16:50:36.666Z,33.6
2023-02-11T16:51:53.770Z,34.1
2023-02-11T16:53:10.875Z,34.3
2023-02-11T16:54:26.996Z,34.3
2023-02-11T16:55:44.101Z,34.7
2023-02-11T16:57:01.206Z,34.9
2023-02-11T16:58:18.310Z,33.2
2023-02-11T16:59:35.415Z,34.4
2023-02-11T17:00:52.520Z,33.2
2023-02-11T17:02:09.625Z,33.9
2023-02-11T17:03:26.730Z,33.9
2023-02-11T17:04:43.835Z,34.2
2023-02-11T17:06:00.940Z,33.2
2023-02-11T17:07:18.044Z,34.9
2023-02-11T17:08:35.149Z,36.2
2023-02-11T17:09:52.254Z,33.4
2023-02-11T17:11:08.375Z,35.9
2023-02-11T17:12:25.480Z,34.6
2023-02-11T17:13:42.585Z,33.7
2023-02-11T17:14:59.690Z,34.7
2023-02-11T17:16:16.795Z,33.8
2023-02-11T17:17:33.899Z,34.3